createdAt,value
2023-02-23T00:01:35.286Z,58.48
2023-02-23T00:04:02.790Z,58.49
2023-02-23T00:06:31.240Z,58.94
2023-02-23T00:09:01.073Z,59.78
2023-02-23T00:11:28.472Z,60.49
2023-02-23T00:13:56.806Z,60.26
2023-02-23T00:16:25.052Z,60.31
2023-02-23T00:18:53.932Z,60.39
2023-02-23T00:21:23.111Z,60.83
2023-02-23T00:23:54.999Z,60.08
2023-02-23T00:26:24.690Z,60.38
2023-02-23T00:28:53.637Z,60.50
2023-02-23T00:31:25.773Z,60.60
2023-02-23T00:33:54.190Z,60.51
2023-02-23T00:36:23.058Z,60.55
2023-02-23T00:38:53.448Z,60.44
2023-02-23T00:41:23.812Z,60.96
2023-02-23T00:43:50.410Z,60.46
2023-02-23T00:46:19.020Z,60.53
2023-02-23T00:48:45.907Z,60.84
2023-02-23T00:51:12.993Z,60.98
2023-02-23T00:53:41.471Z,60.97
2023-02-23T00:56:09.476Z,61.38
2023-02-23T00:58:36.320Z,61.82
2023-02-23T01:01:06.894Z,62.44
2023-02-23T01:03:33.836Z,61.89
2023-02-23T01:06:05.545Z,61.97
2023-02-23T01:08:34.374Z,61.73
2023-02-23T01:11:07.003Z,62.11
2023-02-23T01:13:33.503Z,62.18
2023-02-23T01:16:00.099Z,61.99
2023-02-23T01:18:27.032Z,61.77
2023-02-23T01:20:54.107Z,62.74
2023-02-23T01:23:21.776Z,62.09
2023-02-23T01:25:48.390Z,62.52
2023-02-23T01:28:14.876Z,61.86
2023-02-23T01:30:41.989Z,61.93
2023-02-23T01:33:09.222Z,61.98
2023-02-23T01:35:35.692Z,62.34
2023-02-23T01:38:03.641Z,62.69
2023-02-23T01:40:31.667Z,63.28
2023-02-23T01:43:26.484Z,63.41
2023-02-23T01:45:58.103Z,63.14
2023-02-23T01:48:32.731Z,62.85
2023-02-23T01:51:05.277Z,63.34
2023-02-23T01:53:35.359Z,63.69
2023-02-23T01:56:11.224Z,63.51
2023-02-23T01:58:43.627Z,65.58
2023-02-23T02:01:11.301Z,64.10
2023-02-23T02:03:48.782Z,64.29
2023-02-23T02:06:18.598Z,63.94
2023-02-23T02:08:48.550Z,63.82
2023-02-23T02:11:30.716Z,63.81
2023-02-23T02:14:00.163Z,63.71
2023-02-23T02:16:34.412Z,63.91
2023-02-23T02:19:23.536Z,63.84
2023-02-23T02:22:11.755Z,64.04
2023-02-23T02:24:52.353Z,64.33
2023-02-23T02:27:28.809Z,64.43
2023-02-23T02:30:13.963Z,65.37
2023-02-23T02:33:04.686Z,64.76
2023-02-23T02:35:49.562Z,64.16
2023-02-23T02:38:34.477Z,64.18
2023-02-23T02:41:14.255Z,63.90
2023-02-23T02:43:42.886Z,64.10
2023-02-23T02:46:21.185Z,64.40
2023-02-23T02:48:57.666Z,64.14
2023-02-23T02:51:28.596Z,64.16
2023-02-23T02:54:11.128Z,64.16
2023-02-23T02:56:40.504Z,64.24
2023-02-23T02:59:31.436Z,64.42
2023-02-23T03:02:17.068Z,64.29
2023-02-23T03:05:02.733Z,64.29
2023-02-23T03:08:07.113Z,64.20
2023-02-23T03:11:14.290Z,64.46
2023-02-23T03:14:30.773Z,64.42
2023-02-23T03:17:25.144Z,65.08
2023-02-23T03:20:33.312Z,65.08
2023-02-23T03:23:30.462Z,65.12
2023-02-23T03:26:26.995Z,64.71
2023-02-23T03:29:23.566Z,64.73
2023-02-23T03:32:32.164Z,64.72
2023-02-23T03:35:31.517Z,64.85
2023-02-23T03:38:41.251Z,64.72
2023-02-23T03:41:27.414Z,64.38
2023-02-23T03:44:17.060Z,64.63
2023-02-23T03:47:03.715Z,64.47
2023-02-23T03:49:53.264Z,64.61
2023-02-23T03:52:53.786Z,64.67
2023-02-23T03:55:46.379Z,64.94
2023-02-23T03:58:36.615Z,64.89
2023-02-23T04:01:23.267Z,64.58
2023-02-23T04:04:09.905Z,64.73
2023-02-23T04:06:57.172Z,64.67
2023-02-23T04:09:42.284Z,64.66
2023-02-23T04:12:31.879Z,64.88
2023-02-23T04:15:05.086Z,64.95
2023-02-23T04:17:31.545Z,64.85
2023-02-23T04:19:58.313Z,64.79
2023-02-23T04:22:25.198Z,64.72
2023-02-23T04:24:51.791Z,65.11
2023-02-23T04:27:18.727Z,64.90
2023-02-23T04:29:45.272Z,64.66
2023-02-23T04:32:17.133Z,65.02
2023-02-23T04:34:44.699Z,64.96
2023-02-23T04:37:11.732Z,65.01
2023-02-23T04:39:38.236Z,64.98
2023-02-23T04:42:05.508Z,65.49
2023-02-23T04:44:31.967Z,65.45
2023-02-23T04:46:58.444Z,65.78
2023-02-23T04:49:25.117Z,66.78
2023-02-23T04:51:51.653Z,65.99
2023-02-23T04:54:18.283Z,65.82
2023-02-23T04:56:44.826Z,65.60
2023-02-23T04:59:11.304Z,65.30
2023-02-23T05:01:37.900Z,65.39
2023-02-23T05:04:04.913Z,65.29
2023-02-23T05:06:31.995Z,65.42
2023-02-23T05:08:58.487Z,65.31
2023-02-23T05:11:26.562Z,65.70
2023-02-23T05:13:54.576Z,65.61
2023-02-23T05:16:21.540Z,66.02
2023-02-23T05:18:48.538Z,65.81
2023-02-23T05:21:15.271Z,66.19
2023-02-23T05:23:41.832Z,67.23
2023-02-23T05:26:10.948Z,67.85
2023-02-23T05:28:39.262Z,67.53
2023-02-23T05:31:06.135Z,67.75
2023-02-23T05:33:33.874Z,69.31
2023-02-23T05:36:00.750Z,68.57
2023-02-23T05:38:27.429Z,69.35
2023-02-23T05:40:54.161Z,69.04
2023-02-23T05:43:21.284Z,68.91
2023-02-23T05:45:47.799Z,70.05
2023-02-23T05:48:14.499Z,68.46
2023-02-23T05:50:41.033Z,67.61
2023-02-23T05:53:07.821Z,67.16
2023-02-23T05:55:35.949Z,67.62
2023-02-23T05:58:02.436Z,67.30
2023-02-23T06:00:28.900Z,66.98
2023-02-23T06:02:55.593Z,66.85
2023-02-23T06:05:22.086Z,67.22
2023-02-23T06:07:48.570Z,66.74
2023-02-23T06:10:15.184Z,67.18
2023-02-23T06:12:41.744Z,67.92
2023-02-23T06:15:08.762Z,68.34
2023-02-23T06:17:36.183Z,69.52
2023-02-23T06:20:04.861Z,69.56
2023-02-23T06:22:31.739Z,68.41
2023-02-23T06:24:58.335Z,69.57
2023-02-23T06:27:24.907Z,69.40
2023-02-23T06:29:51.376Z,69.74
2023-02-23T06:32:18.040Z,69.39
2023-02-23T06:34:44.821Z,68.61
2023-02-23T06:37:12.027Z,67.99
2023-02-23T06:39:38.567Z,67.79
2023-02-23T06:42:05.070Z,67.60
2023-02-23T06:44:35.320Z,67.86
2023-02-23T06:47:05.632Z,68.19
2023-02-23T06:49:32.502Z,69.30
2023-02-23T06:51:59.105Z,68.97
2023-02-23T06:54:26.385Z,69.96
2023-02-23T06:56:53.240Z,69.42
2023-02-23T06:59:20.300Z,71.12
2023-02-23T07:01:46.854Z,71.93
2023-02-23T07:04:16.392Z,71.74
2023-02-23T07:06:43.376Z,71.14
2023-02-23T07:09:09.949Z,70.28
2023-02-23T07:11:36.496Z,69.76
2023-02-23T07:14:03.040Z,70.20
2023-02-23T07:16:29.774Z,69.03
2023-02-23T07:18:56.344Z,69.24
2023-02-23T07:21:22.858Z,70.20
2023-02-23T07:23:50.013Z,69.08
2023-02-23T07:26:18.436Z,70.91
2023-02-23T07:28:45.411Z,71.14
2023-02-23T07:31:12.045Z,71.48
2023-02-23T07:33:38.588Z,71.00
2023-02-23T07:36:05.617Z,70.40
2023-02-23T07:38:32.227Z,70.07
2023-02-23T07:40:58.766Z,70.63
2023-02-23T07:43:25.316Z,70.16
2023-02-23T07:45:52.390Z,70.68
2023-02-23T07:48:19.551Z,70.04
2023-02-23T07:50:46.052Z,69.39
2023-02-23T07:53:13.010Z,69.64
2023-02-23T07:55:40.202Z,70.18
2023-02-23T07:58:07.765Z,70.45
2023-02-23T08:00:36.515Z,68.73
2023-02-23T08:03:03.057Z,68.97
2023-02-23T08:05:29.740Z,71.00
2023-02-23T08:07:57.872Z,70.82
2023-02-23T08:10:24.515Z,70.36
2023-02-23T08:12:51.086Z,70.79
2023-02-23T08:15:18.136Z,72.56
2023-02-23T08:17:44.650Z,71.13
2023-02-23T08:20:11.573Z,70.88
2023-02-23T08:22:49.001Z,69.69
2023-02-23T08:25:17.300Z,69.39
2023-02-23T08:27:43.823Z,68.32
2023-02-23T08:30:11.080Z,68.88
2023-02-23T08:32:37.698Z,68.53
2023-02-23T08:35:04.890Z,68.00
2023-02-23T08:37:31.795Z,70.09
2023-02-23T08:39:59.216Z,70.91
2023-02-23T08:42:25.731Z,70.95
2023-02-23T08:44:52.690Z,70.53
2023-02-23T08:47:23.626Z,70.09
2023-02-23T08:49:50.717Z,69.00
2023-02-23T08:52:17.859Z,69.02
2023-02-23T08:54:44.358Z,68.83
2023-02-23T08:57:12.614Z,67.98
2023-02-23T08:59:41.110Z,67.25
2023-02-23T09:02:12.040Z,67.71
2023-02-23T09:04:41.755Z,67.40
2023-02-23T09:07:10.343Z,67.53
2023-02-23T09:09:36.874Z,67.64
2023-02-23T09:12:03.490Z,66.29
2023-02-23T09:14:30.348Z,67.73
2023-02-23T09:16:56.849Z,66.97
2023-02-23T09:19:23.375Z,66.46
2023-02-23T09:21:49.875Z,65.54
2023-02-23T09:24:18.546Z,66.89
2023-02-23T09:26:45.984Z,66.67
2023-02-23T09:29:12.626Z,68.15
2023-02-23T09:31:39.393Z,67.62
2023-02-23T09:34:06.003Z,66.27
2023-02-23T09:36:32.531Z,67.21
2023-02-23T09:38:59.476Z,66.89
2023-02-23T09:41:25.903Z,66.17
2023-02-23T09:44:11.984Z,65.94
2023-02-23T09:47:05.534Z,66.54
2023-02-23T09:49:35.402Z,65.79
2023-02-23T09:52:03.875Z,66.65
2023-02-23T09:54:33.567Z,66.02
2023-02-23T09:57:07.427Z,66.91
2023-02-23T09:59:36.129Z,66.14
2023-02-23T10:02:19.320Z,65.68
2023-02-23T10:04:50.241Z,65.79
2023-02-23T10:07:26.872Z,65.45
2023-02-23T10:10:12.879Z,65.86
2023-02-23T10:12:39.322Z,65.53
2023-02-23T10:15:33.546Z,65.70
2023-02-23T10:18:45.028Z,64.78
2023-02-23T10:21:20.794Z,65.33
2023-02-23T10:24:01.532Z,65.14
2023-02-23T10:26:38.955Z,64.69
2023-02-23T10:29:25.545Z,64.79
2023-02-23T10:31:57.195Z,65.55
2023-02-23T10:34:24.678Z,64.66
2023-02-23T10:37:02.098Z,64.86
2023-02-23T10:39:30.112Z,64.95
2023-02-23T10:41:58.488Z,67.29
2023-02-23T10:44:27.432Z,68.25
2023-02-23T10:47:06.271Z,70.12
2023-02-23T10:49:40.690Z,67.40
2023-02-23T10:52:13.572Z,69.47
2023-02-23T10:54:48.458Z,69.93
2023-02-23T10:57:30.641Z,70.15
2023-02-23T11:00:20.291Z,69.02
2023-02-23T11:02:47.844Z,70.31
2023-02-23T11:05:31.907Z,69.46
2023-02-23T11:08:10.594Z,67.98
2023-02-23T11:10:37.701Z,67.98
2023-02-23T11:13:04.226Z,67.12
2023-02-23T11:15:49.435Z,68.37
2023-02-23T11:18:23.243Z,68.42
2023-02-23T11:20:50.457Z,67.22
2023-02-23T11:23:34.621Z,67.23
2023-02-23T11:26:18.461Z,67.27
2023-02-23T11:28:53.098Z,66.49
2023-02-23T11:31:22.851Z,67.73
2023-02-23T11:33:50.273Z,67.54
2023-02-23T11:36:37.175Z,67.16
2023-02-23T11:39:08.046Z,68.00
2023-02-23T11:41:37.097Z,68.71
2023-02-23T11:44:06.282Z,70.34
2023-02-23T11:46:36.957Z,71.19
2023-02-23T11:49:06.954Z,71.20
2023-02-23T11:51:39.170Z,70.82
2023-02-23T11:54:07.466Z,69.59
2023-02-23T11:56:35.402Z,69.77
2023-02-23T11:59:07.286Z,69.33
2023-02-23T12:01:45.555Z,69.62
2023-02-23T12:04:33.865Z,69.29
2023-02-23T12:07:18.807Z,69.23
2023-02-23T12:09:47.359Z,68.24
2023-02-23T12:12:18.197Z,68.23
2023-02-23T12:14:57.481Z,68.63
2023-02-23T12:17:27.260Z,69.97
2023-02-23T12:20:14.121Z,69.60
2023-02-23T12:22:45.849Z,70.86
2023-02-23T12:25:33.583Z,73.64
2023-02-23T12:28:18.225Z,71.99
2023-02-23T12:30:52.277Z,71.51
2023-02-23T12:33:27.024Z,72.39
2023-02-23T12:35:59.547Z,72.28
2023-02-23T12:38:48.719Z,70.59
2023-02-23T12:41:38.574Z,71.04
2023-02-23T12:44:15.263Z,69.42
2023-02-23T12:46:48.922Z,69.12
2023-02-23T12:49:35.910Z,68.83
2023-02-23T12:52:17.886Z,69.83
2023-02-23T12:54:46.807Z,68.94
2023-02-23T12:57:19.520Z,69.83
2023-02-23T13:00:24.093Z,68.19
2023-02-23T13:03:02.976Z,68.94
2023-02-23T13:05:34.507Z,67.19
2023-02-23T13:08:27.396Z,67.18
2023-02-23T13:11:06.061Z,68.04
2023-02-23T13:13:50.610Z,66.71
2023-02-23T13:16:42.277Z,66.06
2023-02-23T13:19:15.231Z,66.00
2023-02-23T13:21:44.506Z,67.13
2023-02-23T13:24:24.370Z,66.76
2023-02-23T13:27:03.799Z,66.91
2023-02-23T13:29:39.900Z,67.02
2023-02-23T13:32:17.853Z,67.80
2023-02-23T13:35:00.626Z,68.26
2023-02-23T13:37:39.419Z,68.18
2023-02-23T13:40:15.938Z,68.09
2023-02-23T13:42:53.142Z,67.99
2023-02-23T13:45:26.086Z,67.89
2023-02-23T13:47:55.946Z,67.03
2023-02-23T13:50:49.329Z,67.51
2023-02-23T13:53:33.042Z,67.77
2023-02-23T13:56:04.168Z,66.21
2023-02-23T13:58:32.329Z,65.68
2023-02-23T14:01:21.381Z,64.85
2023-02-23T14:03:55.106Z,66.78
2023-02-23T14:06:25.638Z,67.52
2023-02-23T14:09:00.735Z,69.03
2023-02-23T14:11:37.761Z,68.94
2023-02-23T14:14:04.659Z,67.21
2023-02-23T14:16:31.415Z,66.85
2023-02-23T14:19:03.924Z,65.98
2023-02-23T14:21:33.457Z,65.75
2023-02-23T14:24:21.563Z,66.84
2023-02-23T14:27:40.207Z,65.43
2023-02-23T14:30:10.791Z,64.82
2023-02-23T14:32:43.003Z,64.38
2023-02-23T14:35:47.453Z,64.01
2023-02-23T14:38:47.926Z,64.72
2023-02-23T14:41:21.787Z,64.87
2023-02-23T14:43:52.796Z,63.76
2023-02-23T14:46:25.213Z,63.78
2023-02-23T14:49:12.361Z,65.69
2023-02-23T14:51:47.952Z,64.34
2023-02-23T14:54:23.867Z,63.82
2023-02-23T14:56:53.144Z,64.00
2023-02-23T14:59:27.035Z,63.27
2023-02-23T15:01:54.545Z,64.22
2023-02-23T15:04:24.343Z,65.09
2023-02-23T15:06:54.680Z,64.57
2023-02-23T15:09:42.594Z,64.41
2023-02-23T15:12:14.974Z,65.21
2023-02-23T15:14:41.825Z,65.20
2023-02-23T15:17:14.117Z,66.20
2023-02-23T15:19:40.656Z,65.36
2023-02-23T15:22:07.382Z,65.21
2023-02-23T15:24:43.334Z,66.58
2023-02-23T15:27:23.564Z,66.36
2023-02-23T15:29:50.711Z,66.21
2023-02-23T15:32:24.903Z,65.05
2023-02-23T15:34:53.364Z,64.48
2023-02-23T15:37:26.722Z,64.60
2023-02-23T15:39:56.963Z,64.37
2023-02-23T15:42:26.529Z,63.78
2023-02-23T15:44:59.592Z,63.79
2023-02-23T15:47:31.619Z,63.66
2023-02-23T15:50:06.166Z,63.83
2023-02-23T15:52:35.241Z,64.00
2023-02-23T15:55:06.956Z,64.62
2023-02-23T15:57:49.682Z,64.18
2023-02-23T16:00:32.898Z,64.15
2023-02-23T16:03:02.570Z,64.07
2023-02-23T16:05:41.765Z,63.44
2023-02-23T16:08:27.621Z,63.59
2023-02-23T16:11:02.351Z,64.79
2023-02-23T16:13:29.069Z,65.38
2023-02-23T16:15:55.878Z,65.05
2023-02-23T16:18:33.061Z,66.41
2023-02-23T16:20:59.700Z,67.14
2023-02-23T16:23:34.058Z,66.71
2023-02-23T16:26:12.446Z,66.27
2023-02-23T16:28:44.682Z,67.83
2023-02-23T16:31:13.354Z,68.42
2023-02-23T16:33:56.841Z,67.15
2023-02-23T16:36:25.138Z,66.76
2023-02-23T16:38:59.964Z,67.43
2023-02-23T16:41:33.724Z,68.82
2023-02-23T16:44:02.531Z,70.85
2023-02-23T16:46:37.705Z,69.73
2023-02-23T16:49:10.421Z,68.56
2023-02-23T16:51:37.044Z,67.51
2023-02-23T16:54:03.984Z,67.55
2023-02-23T16:56:31.209Z,69.35
2023-02-23T16:59:01.316Z,67.94
2023-02-23T17:01:28.089Z,67.21
2023-02-23T17:03:54.600Z,66.76
2023-02-23T17:06:22.437Z,65.90
2023-02-23T17:08:57.367Z,66.77
2023-02-23T17:11:24.536Z,66.18
2023-02-23T17:13:51.189Z,65.98
2023-02-23T17:16:21.258Z,66.09
2023-02-23T17:18:48.876Z,65.97
2023-02-23T17:21:16.238Z,65.72
2023-02-23T17:23:50.791Z,66.06
2023-02-23T17:26:20.503Z,66.57
2023-02-23T17:28:51.524Z,65.81
2023-02-23T17:31:20.022Z,66.66
2023-02-23T17:33:47.493Z,66.36
2023-02-23T17:36:17.013Z,66.28
2023-02-23T17:38:44.837Z,66.12
2023-02-23T17:41:19.616Z,66.30
2023-02-23T17:43:46.627Z,66.77
2023-02-23T17:46:13.400Z,66.27
2023-02-23T17:48:40.798Z,65.92
2023-02-23T17:51:09.130Z,65.93
2023-02-23T17:53:36.277Z,66.72
2023-02-23T17:56:04.491Z,67.23
2023-02-23T17:58:33.962Z,67.69
2023-02-23T18:01:02.553Z,67.41
2023-02-23T18:03:34.902Z,69.01
2023-02-23T18:06:12.819Z,69.42
2023-02-23T18:08:42.348Z,69.75
2023-02-23T18:11:09.506Z,71.02
2023-02-23T18:13:36.248Z,72.09
2023-02-23T18:16:10.497Z,70.55
2023-02-23T18:18:42.606Z,70.98
2023-02-23T18:21:14.843Z,70.50
2023-02-23T18:23:42.275Z,69.82
2023-02-23T18:26:11.785Z,69.74
2023-02-23T18:28:40.574Z,70.18
2023-02-23T18:31:07.122Z,69.69
2023-02-23T18:33:35.879Z,68.28
2023-02-23T18:36:03.877Z,69.30
2023-02-23T18:38:30.408Z,68.76
2023-02-23T18:40:57.263Z,68.52
2023-02-23T18:43:23.821Z,67.72
2023-02-23T18:45:50.399Z,67.73
2023-02-23T18:48:16.937Z,67.76
2023-02-23T18:50:43.421Z,67.37
2023-02-23T18:53:10.890Z,68.41
2023-02-23T18:55:37.844Z,67.89
2023-02-23T18:58:05.644Z,68.82
2023-02-23T19:00:42.552Z,68.62
2023-02-23T19:03:10.285Z,69.72
2023-02-23T19:05:37.782Z,69.26
2023-02-23T19:08:08.550Z,68.51
2023-02-23T19:10:36.319Z,68.87
2023-02-23T19:13:02.897Z,68.22
2023-02-23T19:15:30.903Z,68.07
2023-02-23T19:17:57.466Z,68.22
2023-02-23T19:20:24.504Z,69.91
2023-02-23T19:22:51.141Z,69.66
2023-02-23T19:25:17.798Z,69.81
2023-02-23T19:27:44.294Z,67.96
2023-02-23T19:30:11.489Z,68.75
2023-02-23T19:32:39.918Z,68.27
2023-02-23T19:35:09.771Z,68.67
2023-02-23T19:37:39.660Z,67.82
2023-02-23T19:40:06.776Z,68.23
2023-02-23T19:42:35.100Z,67.74
2023-02-23T19:45:01.675Z,68.69
2023-02-23T19:47:28.328Z,68.24
2023-02-23T19:49:55.039Z,69.26
2023-02-23T19:52:23.060Z,69.32
2023-02-23T19:54:49.789Z,68.38
2023-02-23T19:57:16.257Z,67.59
2023-02-23T19:59:42.912Z,68.34
2023-02-23T20:02:10.941Z,67.96
2023-02-23T20:04:37.577Z,67.48
2023-02-23T20:07:04.142Z,67.40
2023-02-23T20:09:30.628Z,66.99
2023-02-23T20:11:57.304Z,67.46
2023-02-23T20:14:24.900Z,67.91
2023-02-23T20:16:51.449Z,66.69
2023-02-23T20:19:19.600Z,68.69
2023-02-23T20:21:46.153Z,68.38
2023-02-23T20:24:13.158Z,68.20
2023-02-23T20:26:40.076Z,68.49
2023-02-23T20:29:10.573Z,68.79
2023-02-23T20:31:38.551Z,69.04
2023-02-23T20:34:09.835Z,68.51
2023-02-23T20:36:36.952Z,69.80
2023-02-23T20:39:16.746Z,68.68
2023-02-23T20:41:45.590Z,68.56
2023-02-23T20:44:12.807Z,68.55
2023-02-23T20:46:40.364Z,69.59
2023-02-23T20:49:11.296Z,68.40
2023-02-23T20:51:39.382Z,68.06
2023-02-23T20:54:07.769Z,68.40
2023-02-23T20:56:34.657Z,68.05
2023-02-23T20:59:02.333Z,68.48
2023-02-23T21:01:28.847Z,68.38
2023-02-23T21:03:56.531Z,67.74
2023-02-23T21:06:24.486Z,68.10
2023-02-23T21:08:55.602Z,67.51
2023-02-23T21:11:27.085Z,67.59
2023-02-23T21:13:53.884Z,67.37
2023-02-23T21:16:23.650Z,68.37
2023-02-23T21:19:03.877Z,68.43
2023-02-23T21:21:41.075Z,69.19
2023-02-23T21:24:08.039Z,68.82
2023-02-23T21:26:35.067Z,68.63
2023-02-23T21:29:02.397Z,68.34
2023-02-23T21:31:29.003Z,67.89
2023-02-23T21:33:55.579Z,67.07
2023-02-23T21:36:22.458Z,67.35
2023-02-23T21:38:49.455Z,66.93
2023-02-23T21:41:16.087Z,66.26
2023-02-23T21:43:43.671Z,66.26
2023-02-23T21:46:13.146Z,65.70
2023-02-23T21:48:40.147Z,66.20
2023-02-23T21:51:08.732Z,65.50
2023-02-23T21:53:37.556Z,65.66
2023-02-23T21:56:20.223Z,66.00
2023-02-23T21:58:56.339Z,66.08
2023-02-23T22:01:25.594Z,65.43
2023-02-23T22:03:54.907Z,65.72
2023-02-23T22:06:27.385Z,66.63
2023-02-23T22:08:54.911Z,66.39
2023-02-23T22:11:24.714Z,65.63
2023-02-23T22:13:59.586Z,66.63
2023-02-23T22:16:30.544Z,66.35
2023-02-23T22:18:58.266Z,65.71
2023-02-23T22:21:24.830Z,65.29
2023-02-23T22:23:53.310Z,65.05
2023-02-23T22:26:20.092Z,65.43
2023-02-23T22:28:46.584Z,65.22
2023-02-23T22:31:13.988Z,65.09
2023-02-23T22:33:42.960Z,64.54
2023-02-23T22:36:12.964Z,64.69
2023-02-23T22:38:41.206Z,65.24
2023-02-23T22:41:11.592Z,64.83
2023-02-23T22:43:38.896Z,65.02
2023-02-23T22:46:07.662Z,63.98
2023-02-23T22:48:35.198Z,63.55
2023-02-23T22:51:02.342Z,63.21
2023-02-23T22:53:29.274Z,63.28
2023-02-23T22:55:56.355Z,63.66
2023-02-23T22:58:24.710Z,64.55
2023-02-23T23:01:06.189Z,66.50
2023-02-23T23:03:40.439Z,64.89
2023-02-23T23:06:09.527Z,65.30
2023-02-23T23:08:40.086Z,64.97
2023-02-23T23:11:09.651Z,64.81
2023-02-23T23:14:01.820Z,64.99
2023-02-23T23:16:33.785Z,65.48
2023-02-23T23:19:03.597Z,65.08
2023-02-23T23:21:32.660Z,64.83
2023-02-23T23:24:01.730Z,65.05
2023-02-23T23:26:29.239Z,65.37
2023-02-23T23:28:58.426Z,64.72
2023-02-23T23:31:29.552Z,64.06
2023-02-23T23:34:00.165Z,64.14
2023-02-23T23:36:32.231Z,64.10
2023-02-23T23:38:59.398Z,63.33
2023-02-23T23:41:27.533Z,62.84
2023-02-23T23:43:56.884Z,63.02
2023-02-23T23:46:29.251Z,62.83
2023-02-23T23:49:02.136Z,61.98
2023-02-23T23:51:37.182Z,61.85
2023-02-23T23:54:04.288Z,61.63
2023-02-23T23:56:30.851Z,62.84
2023-02-23T23:58:58.754Z,62.47
